Time;durP1;ratioP1;P1;durP2;ratioP2;P2;SDS_P1;SDS_P2;PMS_P1;PMS_P2;Temp;Humidity;BMP_temperature;BMP_pressure;BME280_temperature;BME280_humidity;BME280_pressure;Samples;Min_cycle;Max_cycle;Signal;HPM_P1;HPM_P2
2021/12/10 00:02:06;;;;;;;55.83;27.30;;;;;;;-0.01;82.56;97657.59;2225853;79;21021;-82
2021/12/10 00:05:07;;;;;;;55.03;28.07;;;;;;;0.01;82.67;97662.80;2238138;78;20953;-84
2021/12/10 00:08:08;;;;;;;56.13;28.60;;;;;;;0.03;82.69;97658.59;2255189;79;21030;-82
2021/12/10 00:11:08;;;;;;;55.40;26.90;;;;;;;0.02;82.65;97661.11;2241594;79;20989;-83
2021/12/10 00:14:09;;;;;;;53.50;28.13;;;;;;;0.05;82.66;97656.95;2233654;79;21107;-83
2021/12/10 00:17:11;;;;;;;49.60;26.07;;;;;;;0.07;82.67;97665.98;2219584;79;21073;-81
2021/12/10 00:20:12;;;;;;;52.37;25.13;;;;;;;0.08;82.65;97658.75;2229343;79;21409;-83
2021/12/10 00:23:13;;;;;;;51.17;26.13;;;;;;;0.08;82.75;97625.40;2245977;79;21448;-84
2021/12/10 00:26:13;;;;;;;55.13;27.13;;;;;;;0.04;82.59;97632.13;2254164;78;21036;-82
2021/12/10 00:29:15;;;;;;;53.87;26.00;;;;;;;0.03;82.71;97641.05;2227679;79;20997;-82
2021/12/10 00:32:24;;;;;;;44.73;23.73;;;;;;;-0.02;82.80;97640.45;2223098;79;20982;-82
2021/12/10 00:35:18;;;;;;;52.37;25.27;;;;;;;-0.04;82.84;97634.40;2231888;79;21025;-83
2021/12/10 00:38:19;;;;;;;55.80;26.57;;;;;;;-0.06;83.05;97634.76;2252305;78;21037;-83
2021/12/10 00:41:19;;;;;;;52.00;24.63;;;;;;;-0.04;83.23;97622.85;2233175;78;20981;-82
2021/12/10 00:44:20;;;;;;;51.43;23.90;;;;;;;-0.03;83.17;97614.34;2209001;79;21056;-84
2021/12/10 00:47:20;;;;;;;54.10;26.53;;;;;;;-0.04;83.21;97620.29;2220882;78;21338;-83
2021/12/10 00:50:21;;;;;;;58.47;27.13;;;;;;;-0.12;83.20;97620.44;2254666;78;21016;-83
2021/12/10 00:53:21;;;;;;;51.93;24.60;;;;;;;-0.11;83.51;97617.05;2226791;78;21372;-82
2021/12/10 00:56:22;;;;;;;51.43;25.53;;;;;;;-0.08;83.74;97612.44;2233289;79;21021;-82
2021/12/10 00:59:23;;;;;;;59.20;29.20;;;;;;;-0.10;83.76;97614.08;2198484;79;21029;-82
2021/12/10 01:02:23;;;;;;;54.07;26.57;;;;;;;-0.10;83.73;97607.26;2232629;79;21013;-82
2021/12/10 01:05:23;;;;;;;56.67;26.13;;;;;;;-0.12;83.93;97607.62;2245809;79;21354;-82
2021/12/10 01:08:24;;;;;;;59.73;26.27;;;;;;;-0.14;83.91;97618.23;2226141;78;20978;-82
2021/12/10 01:11:25;;;;;;;50.47;26.10;;;;;;;-0.17;84.18;97606.59;2210822;79;21044;-82
2021/12/10 01:14:34;;;;;;;61.73;27.07;;;;;;;-0.17;84.18;97613.41;2196127;79;21119;-82
2021/12/10 01:24:14;;;;;;;60.40;28.60;;;;;;;-0.20;84.36;97605.20;2196224;79;21005;-82
2021/12/10 01:27:12;;;;;;;58.30;27.97;;;;;;;-0.19;84.54;97596.69;2215404;79;21065;-82
2021/12/10 01:30:10;;;;;;;57.17;25.80;;;;;;;-0.16;84.63;97583.97;2208269;79;21069;-81
2021/12/10 01:33:11;;;;;;;58.33;27.20;;;;;;;-0.14;84.76;97584.02;2222438;79;21373;-82
2021/12/10 01:36:11;;;;;;;57.50;26.30;;;;;;;-0.14;84.62;97578.48;2214214;78;21030;-81
2021/12/10 01:39:12;;;;;;;54.30;26.20;;;;;;;-0.11;84.59;97578.99;2239400;79;20978;-84
2021/12/10 01:42:16;;;;;;;53.03;26.20;;;;;;;-0.11;84.61;97596.54;2248551;78;20989;-82
2021/12/10 01:45:19;;;;;;;47.53;24.87;;;;;;;-0.08;84.64;97588.07;2230489;78;21377;-82
2021/12/10 01:48:17;;;;;;;47.67;24.97;;;;;;;-0.06;84.55;97579.61;2249376;79;21021;-83
2021/12/10 01:51:18;;;;;;;53.17;24.80;;;;;;;-0.05;84.54;97567.23;2234746;78;20994;-82
2021/12/10 01:54:20;;;;;;;44.20;23.13;;;;;;;-0.01;84.53;97566.52;2212327;79;21001;-82
2021/12/10 01:57:20;;;;;;;47.63;24.83;;;;;;;-0.02;84.45;97562.20;2220340;79;21008;-83
2021/12/10 02:00:21;;;;;;;40.90;23.13;;;;;;;0.05;84.44;97562.44;2234258;78;20973;-82
2021/12/10 02:03:21;;;;;;;45.20;23.87;;;;;;;0.09;84.35;97563.88;2230742;78;20982;-81
2021/12/10 02:06:22;;;;;;;43.97;23.33;;;;;;;0.11;84.25;97560.06;2201243;79;21037;-83
2021/12/10 02:09:22;;;;;;;39.67;22.10;;;;;;;0.13;84.21;97562.27;2206706;79;20990;-83
2021/12/10 02:12:23;;;;;;;45.30;23.20;;;;;;;0.14;84.11;97549.91;2251372;78;21009;-82
2021/12/10 02:15:27;;;;;;;44.77;23.43;;;;;;;0.16;84.01;97550.83;2252631;79;21021;-83
2021/12/10 02:18:26;;;;;;;38.60;21.13;;;;;;;0.19;84.08;97556.05;2227558;79;21044;-82
2021/12/10 02:21:29;;;;;;;39.17;22.13;;;;;;;0.23;83.95;97561.33;2243551;78;20977;-82
2021/12/10 02:24:29;;;;;;;37.60;20.53;;;;;;;0.26;83.92;97565.27;2246579;79;21075;-82
2021/12/10 02:30:32;;;;;;;40.77;23.00;;;;;;;0.39;84.04;97562.67;2198450;79;21041;-82
2021/12/10 02:33:32;;;;;;;37.50;22.33;;;;;;;0.39;83.72;97561.80;2242311;78;21021;-83
2021/12/10 02:36:33;;;;;;;47.70;25.40;;;;;;;0.40;83.66;97575.09;2228514;79;21397;-84
2021/12/10 02:39:33;;;;;;;50.37;26.23;;;;;;;0.40;83.62;97557.13;2234219;79;21013;-82
2021/12/10 02:42:34;;;;;;;52.53;26.77;;;;;;;0.39;83.62;97563.09;2252698;79;21009;-83
2021/12/10 02:45:34;;;;;;;51.33;27.53;;;;;;;0.40;83.62;97569.97;2215501;78;21009;-83
2021/12/10 02:48:35;;;;;;;51.40;27.60;;;;;;;0.43;83.71;97558.51;2223413;79;21009;-83
2021/12/10 02:51:36;;;;;;;50.97;28.40;;;;;;;0.46;83.61;97567.59;2195099;79;21397;-83
2021/12/10 02:54:37;;;;;;;54.43;27.97;;;;;;;0.46;83.51;97563.32;2223745;79;21436;-84
2021/12/10 02:57:37;;;;;;;52.83;27.43;;;;;;;0.48;83.50;97568.50;2249779;78;21413;-83
2021/12/10 03:00:38;;;;;;;50.07;27.73;;;;;;;0.51;83.45;97573.73;2223870;79;21362;-83
2021/12/10 03:03:38;;;;;;;46.23;25.30;;;;;;;0.50;83.42;97563.88;2224257;79;21075;-84
2021/12/10 03:06:40;;;;;;;50.17;27.67;;;;;;;0.51;83.34;97568.19;2248562;79;20993;-84
2021/12/10 03:09:41;;;;;;;51.03;27.57;;;;;;;0.53;83.46;97554.98;2240176;78;21400;-84
2021/12/10 03:12:41;;;;;;;50.13;27.30;;;;;;;0.58;83.40;97545.72;2215188;79;21009;-83
2021/12/10 03:15:42;;;;;;;55.83;28.80;;;;;;;0.61;83.31;97527.84;2216489;79;21400;-83
2021/12/10 03:18:42;;;;;;;53.37;30.03;;;;;;;0.60;83.08;97515.82;2222616;79;21009;-83
2021/12/10 03:21:44;;;;;;;53.07;27.50;;;;;;;0.61;83.05;97521.41;2243398;79;20977;-84
2021/12/10 03:24:46;;;;;;;44.67;25.77;;;;;;;0.72;83.29;97533.70;2216804;79;21084;-83
2021/12/10 03:27:47;;;;;;;44.20;24.40;;;;;;;0.73;83.14;97527.73;2216566;79;21354;-83
2021/12/10 03:30:47;;;;;;;45.10;24.10;;;;;;;0.73;83.02;97514.89;2223638;79;20997;-84
2021/12/10 03:33:48;;;;;;;48.83;25.37;;;;;;;0.75;82.98;97523.52;2216446;78;20996;-83
2021/12/10 03:36:50;;;;;;;44.93;25.63;;;;;;;0.76;82.90;97528.70;2243509;79;21001;-84
2021/12/10 03:39:50;;;;;;;43.33;25.57;;;;;;;0.78;82.89;97519.34;2247925;79;20934;-83
2021/12/10 03:45:53;;;;;;;47.00;25.87;;;;;;;0.79;82.58;97519.80;2209380;79;21054;-83
2021/12/10 03:48:54;;;;;;;52.13;28.90;;;;;;;0.78;82.49;97524.88;2234255;79;20978;-83
2021/12/10 03:51:54;;;;;;;62.17;34.37;;;;;;;0.77;82.43;97515.44;2246490;79;21009;-83
2021/12/10 03:54:55;;;;;;;70.57;36.40;;;;;;;0.78;82.49;97512.05;2249937;79;20954;-83
2021/12/10 03:57:56;;;;;;;75.70;37.57;;;;;;;0.79;82.50;97515.06;2243392;79;21020;-83
2021/12/10 04:00:57;;;;;;;84.50;40.17;;;;;;;0.80;82.30;97516.81;2248555;78;20969;-83
2021/12/10 04:03:57;;;;;;;87.03;40.17;;;;;;;0.77;82.19;97517.59;2229454;79;20997;-83
2021/12/10 04:06:57;;;;;;;97.43;40.97;;;;;;;0.77;82.19;97509.02;2200660;79;21021;-85
2021/12/10 04:09:58;;;;;;;79.03;33.47;;;;;;;0.77;82.24;97505.16;2201531;79;20970;-84
2021/12/10 04:12:58;;;;;;;65.10;31.60;;;;;;;0.76;82.11;97509.84;2229251;79;21048;-83
2021/12/10 04:15:59;;;;;;;71.30;33.37;;;;;;;0.74;81.93;97514.06;2217135;79;21001;-83
2021/12/10 04:19:00;;;;;;;64.93;30.37;;;;;;;0.72;82.02;97520.86;2206141;79;21432;-84
2021/12/10 04:22:00;;;;;;;60.30;31.33;;;;;;;0.68;81.89;97515.17;2240967;79;21401;-83
2021/12/10 04:25:01;;;;;;;54.37;29.73;;;;;;;0.62;82.00;97516.73;2224822;78;20974;-80
2021/12/10 04:28:01;;;;;;;52.97;27.80;;;;;;;0.62;82.05;97515.45;2220001;79;21070;-84
2021/12/10 04:31:02;;;;;;;50.43;28.13;;;;;;;0.64;82.18;97520.22;2231495;78;21017;-83
2021/12/10 04:37:05;;;;;;;54.80;29.17;;;;;;;0.70;82.11;97523.37;2164857;79;21429;-83
2021/12/10 04:40:06;;;;;;;58.30;31.90;;;;;;;0.71;82.04;97520.40;2227307;79;21064;-83
2021/12/10 04:43:06;;;;;;;58.93;31.30;;;;;;;0.72;82.05;97546.13;2213282;79;21041;-83
2021/12/10 04:46:07;;;;;;;63.37;31.83;;;;;;;0.70;81.94;97552.05;2247006;79;21625;-83
2021/12/10 04:49:10;;;;;;;68.67;34.63;;;;;;;0.68;82.03;97540.86;2240237;78;20992;-84
2021/12/10 04:52:10;;;;;;;69.03;36.03;;;;;;;0.71;82.11;97543.52;2226005;79;21072;-85
2021/12/10 04:55:10;;;;;;;74.03;39.33;;;;;;;0.71;81.97;97543.52;2217448;79;21374;-85
2021/12/10 04:58:11;;;;;;;78.87;41.60;;;;;;;0.68;81.93;97535.72;2244850;79;21028;-84
2021/12/10 05:01:14;;;;;;;65.53;36.80;;;;;;;0.68;81.97;97549.84;2218721;79;21037;-85
2021/12/10 05:04:15;;;;;;;76.73;37.73;;;;;;;0.65;81.91;97557.05;2230768;79;21013;-84
2021/12/10 05:07:19;;;;;;;81.07;38.33;;;;;;;0.62;81.84;97564.66;2224719;79;21068;-86
2021/12/10 05:10:19;;;;;;;75.33;35.50;;;;;;;0.58;81.96;97564.11;2233894;79;20989;-83
2021/12/10 05:13:20;;;;;;;67.23;34.80;;;;;;;0.58;82.02;97556.41;2239062;79;20946;-84
2021/12/10 05:16:25;;;;;;;77.70;36.07;;;;;;;0.55;82.02;97550.77;2232511;79;21017;-84
2021/12/10 05:19:26;;;;;;;68.70;34.40;;;;;;;0.59;82.27;97547.46;2211851;79;20973;-83
2021/12/10 05:22:25;;;;;;;71.87;34.00;;;;;;;0.61;82.13;97540.67;2220682;79;21013;-84
2021/12/10 05:25:26;;;;;;;65.53;33.97;;;;;;;0.61;81.98;97544.53;2232636;79;20981;-83
2021/12/10 05:28:26;;;;;;;75.43;37.07;;;;;;;0.60;81.96;97551.77;2242983;79;20997;-84
2021/12/10 05:31:27;;;;;;;75.27;37.70;;;;;;;0.59;81.99;97552.59;2225757;78;20969;-84
2021/12/10 05:34:28;;;;;;;73.63;37.07;;;;;;;0.59;81.88;97544.89;2252710;78;21037;-84
2021/12/10 05:37:30;;;;;;;71.00;37.20;;;;;;;0.58;81.84;97548.29;2209676;79;21001;-83
2021/12/10 05:40:31;;;;;;;79.87;40.70;;;;;;;0.58;82.04;97539.71;2237010;78;21433;-83
2021/12/10 05:43:31;;;;;;;75.87;37.83;;;;;;;0.59;82.05;97542.33;2233926;78;21672;-83
2021/12/10 05:46:32;;;;;;;73.23;38.57;;;;;;;0.58;81.90;97536.73;2217830;79;20989;-83
2021/12/10 05:49:32;;;;;;;76.93;34.87;;;;;;;0.56;81.82;97540.08;2213592;79;21048;-83
2021/12/10 05:52:34;;;;;;;73.30;35.33;;;;;;;0.54;81.74;97547.73;2219171;79;21024;-78
2021/12/10 05:55:34;;;;;;;71.20;34.30;;;;;;;0.51;81.64;97554.48;2230162;79;20996;-84
2021/12/10 05:58:36;;;;;;;70.53;35.70;;;;;;;0.57;81.80;97545.67;2214049;78;21001;-83
2021/12/10 06:01:37;;;;;;;70.97;35.37;;;;;;;0.56;81.83;97552.50;2249191;79;21009;-84
2021/12/10 06:04:37;;;;;;;72.73;35.90;;;;;;;0.63;82.36;97549.30;2221328;79;21273;-83
2021/12/10 06:07:41;;;;;;;68.63;34.53;;;;;;;0.66;81.79;97539.94;2242954;79;20993;-81
2021/12/10 06:10:41;;;;;;;71.37;33.83;;;;;;;0.60;81.42;97535.49;2204407;79;21060;-84
2021/12/10 06:13:42;;;;;;;73.63;35.20;;;;;;;0.56;81.36;97541.36;2233220;79;21004;-81
2021/12/10 06:16:43;;;;;;;71.33;35.20;;;;;;;0.53;81.54;97533.16;2204842;79;21024;-82
2021/12/10 06:19:43;;;;;;;73.13;35.43;;;;;;;0.54;81.46;97536.19;2206582;79;21353;-84
2021/12/10 06:22:44;;;;;;;77.73;39.43;;;;;;;0.55;81.42;97535.36;2239631;79;20974;-85
2021/12/10 06:25:45;;;;;;;74.13;37.13;;;;;;;0.55;81.34;97541.78;2238584;79;21002;-84
2021/12/10 06:28:45;;;;;;;78.60;37.83;;;;;;;0.54;81.44;97545.17;2249272;79;21040;-83
2021/12/10 06:31:46;;;;;;;72.70;35.30;;;;;;;0.54;81.42;97546.45;2234270;79;21051;-83
2021/12/10 06:34:47;;;;;;;122.63;44.37;;;;;;;0.54;81.34;97545.17;2240513;79;21732;-83
2021/12/10 06:37:47;;;;;;;113.47;55.23;;;;;;;0.56;81.43;97546.50;2203576;79;21028;-83
2021/12/10 06:40:48;;;;;;;111.47;61.03;;;;;;;0.57;81.08;97552.09;2226343;79;20974;-81
2021/12/10 06:43:48;;;;;;;97.93;49.97;;;;;;;0.51;80.94;97550.62;2193284;79;21422;-81
2021/12/10 06:46:49;;;;;;;81.47;40.20;;;;;;;0.46;80.91;97557.31;2215353;79;20989;-83
2021/12/10 06:49:49;;;;;;;78.20;36.17;;;;;;;0.42;80.80;97550.34;2230028;79;21032;-82
2021/12/10 06:52:50;;;;;;;76.43;37.40;;;;;;;0.35;80.61;97550.57;2234550;79;20965;-83
2021/12/10 06:55:53;;;;;;;69.80;34.50;;;;;;;0.25;80.44;97545.56;2200402;79;21823;-83
2021/12/10 06:58:54;;;;;;;71.93;34.10;;;;;;;0.20;80.53;97551.38;2243680;79;21420;-83
2021/12/10 07:01:55;;;;;;;61.90;31.23;;;;;;;0.09;80.42;97559.15;2249107;78;21076;-83
2021/12/10 07:04:56;;;;;;;69.93;31.93;;;;;;;-0.01;80.43;97569.08;2236342;78;20949;-82
2021/12/10 07:07:56;;;;;;;63.93;33.43;;;;;;;-0.05;80.55;97576.22;2227819;79;21431;-83
2021/12/10 07:10:57;;;;;;;67.77;32.73;;;;;;;-0.12;80.56;97572.98;2239949;79;20993;-82
2021/12/10 07:13:57;;;;;;;62.33;32.20;;;;;;;-0.14;80.79;97571.20;2238667;78;20981;-85
2021/12/10 07:16:58;;;;;;;70.73;34.03;;;;;;;-0.13;80.73;97572.53;2230362;79;21448;-83
2021/12/10 07:19:58;;;;;;;79.47;38.03;;;;;;;-0.13;80.70;97577.66;2219491;78;21056;-81
2021/12/10 07:22:59;;;;;;;79.23;38.33;;;;;;;-0.19;80.64;97572.73;2193307;79;21017;-83
2021/12/10 07:25:59;;;;;;;71.30;35.60;;;;;;;-0.24;80.69;97579.00;2234156;79;20958;-83
2021/12/10 07:29:00;;;;;;;72.57;36.13;;;;;;;-0.29;80.63;97579.25;2245568;78;21036;-83
2021/12/10 07:32:00;;;;;;;72.47;36.93;;;;;;;-0.30;80.74;97583.05;2231759;79;21001;-84
2021/12/10 07:35:01;;;;;;;77.83;38.63;;;;;;;-0.28;80.56;97583.56;2225448;78;21032;-81
2021/12/10 07:38:01;;;;;;;77.07;37.97;;;;;;;-0.26;80.65;97578.48;2211163;79;21013;-80
2021/12/10 07:41:02;;;;;;;68.37;35.53;;;;;;;-0.26;80.66;97563.97;2247351;78;21397;-85
2021/12/10 07:44:05;;;;;;;72.53;36.40;;;;;;;-0.18;80.82;97567.66;2245213;78;20973;-83
2021/12/10 07:47:08;;;;;;;97.10;49.90;;;;;;;-0.04;80.95;97573.24;2207251;79;21084;-84
2021/12/10 07:50:08;;;;;;;124.70;67.50;;;;;;;0.09;80.93;97570.70;2221843;79;21535;-84
2021/12/10 07:53:08;;;;;;;78.33;40.83;;;;;;;0.18;80.67;97569.70;2208834;79;20989;-84
2021/12/10 07:56:09;;;;;;;79.17;39.53;;;;;;;0.29;80.68;97573.48;2239449;78;21016;-84
2021/12/10 07:59:15;;;;;;;77.70;40.10;;;;;;;0.50;80.77;97579.70;2201492;79;21506;-85
2021/12/10 08:02:16;;;;;;;75.67;39.23;;;;;;;0.64;80.30;97584.83;2230684;79;21024;-85
2021/12/10 08:05:16;;;;;;;79.57;39.60;;;;;;;0.78;80.05;97592.55;2222441;79;21024;-84
2021/12/10 08:08:17;;;;;;;78.23;41.63;;;;;;;0.95;79.96;97595.64;2235154;79;21002;-84
2021/12/10 08:11:18;;;;;;;86.43;43.27;;;;;;;1.09;79.42;97582.78;2246430;79;21049;-83
2021/12/10 08:14:18;;;;;;;85.43;42.67;;;;;;;1.14;79.03;97585.06;2235024;78;21036;-84
2021/12/10 08:17:19;;;;;;;81.40;41.80;;;;;;;1.21;78.80;97588.27;2243770;78;20946;-83
2021/12/10 08:20:20;;;;;;;74.43;38.37;;;;;;;1.30;78.25;97595.36;2221214;79;20986;-86
2021/12/10 08:23:20;;;;;;;79.47;42.30;;;;;;;1.33;77.96;97599.72;2194640;79;21016;-83
2021/12/10 08:26:21;;;;;;;84.90;42.27;;;;;;;1.31;77.77;97601.38;2240797;79;21009;-85
2021/12/10 08:29:25;;;;;;;86.83;42.73;;;;;;;1.32;77.64;97606.55;2223116;79;20985;-83
2021/12/10 08:32:25;;;;;;;90.80;47.57;;;;;;;1.37;77.44;97610.13;2204029;79;21296;-85
2021/12/10 08:35:29;;;;;;;97.23;49.77;;;;;;;1.43;77.52;97605.57;2242544;78;21009;-86
2021/12/10 08:38:30;;;;;;;109.43;55.93;;;;;;;1.58;77.30;97605.98;2238596;79;21040;-85
2021/12/10 08:41:34;;;;;;;104.63;55.97;;;;;;;1.73;76.88;97603.83;2219391;79;20992;-85
2021/12/10 08:44:35;;;;;;;97.13;49.93;;;;;;;1.81;76.66;97606.22;2225226;79;21415;-85
2021/12/10 08:47:35;;;;;;;96.03;47.50;;;;;;;1.82;76.37;97613.52;2215213;79;20985;-85
2021/12/10 08:50:36;;;;;;;96.73;49.33;;;;;;;1.82;75.87;97621.23;2230322;79;21013;-86
2021/12/10 08:53:36;;;;;;;88.17;45.93;;;;;;;1.84;76.00;97617.88;2246745;78;20977;-85
2021/12/10 08:56:37;;;;;;;92.27;47.73;;;;;;;1.83;75.58;97617.83;2212944;79;20978;-85
2021/12/10 08:59:38;;;;;;;87.30;45.83;;;;;;;1.86;75.58;97626.50;2215213;79;21016;-86
2021/12/10 09:02:39;;;;;;;95.00;49.17;;;;;;;1.95;75.43;97629.73;2219535;79;20983;-86
2021/12/10 09:05:39;;;;;;;92.80;48.90;;;;;;;2.06;75.28;97631.30;2230168;78;21448;-86
2021/12/10 09:08:40;;;;;;;91.23;51.00;;;;;;;2.18;75.10;97636.75;2225155;79;21028;-86
2021/12/10 09:11:41;;;;;;;103.10;55.00;;;;;;;2.23;74.42;97636.03;2247868;79;20993;-86
2021/12/10 09:14:45;;;;;;;92.13;49.70;;;;;;;2.24;74.42;97640.77;2251729;79;21031;-84
2021/12/10 09:17:44;;;;;;;89.03;47.73;;;;;;;2.32;74.47;97644.41;2193217;79;21025;-85
2021/12/10 09:20:44;;;;;;;94.77;51.37;;;;;;;2.34;74.29;97649.18;2226431;79;21064;-84
2021/12/10 09:23:46;;;;;;;91.73;50.40;;;;;;;2.37;74.40;97641.53;2237997;79;21390;-86
2021/12/10 09:26:47;;;;;;;94.10;52.27;;;;;;;2.48;74.17;97638.80;2217463;78;20996;-85
2021/12/10 09:29:48;;;;;;;92.37;50.70;;;;;;;2.65;74.13;97634.49;2245870;79;21001;-85
2021/12/10 09:32:49;;;;;;;92.03;49.50;;;;;;;2.73;73.56;97629.97;2245109;79;21441;-87
2021/12/10 09:35:49;;;;;;;91.90;49.97;;;;;;;2.78;73.46;97628.78;2215198;79;20996;-85
2021/12/10 09:38:50;;;;;;;97.57;48.07;;;;;;;2.93;73.35;97625.69;2252106;79;21460;-85
2021/12/10 09:44:53;;;;;;;85.13;45.27;;;;;;;3.06;72.63;97605.78;2208397;79;21076;-85
2021/12/10 09:47:54;;;;;;;83.03;44.87;;;;;;;3.14;72.42;97604.23;2252334;79;21679;-85
2021/12/10 09:50:55;;;;;;;83.63;46.00;;;;;;;3.28;72.43;97603.23;2235462;78;20993;-85
2021/12/10 09:53:57;;;;;;;156.17;86.57;;;;;;;3.52;72.24;97598.59;2212052;79;21404;-86
2021/12/10 09:56:58;;;;;;;111.00;62.67;;;;;;;3.69;71.46;97584.30;2206706;79;20989;-84
2021/12/10 09:59:59;;;;;;;88.60;50.03;;;;;;;3.62;71.20;97588.89;2248315;79;21330;-86
2021/12/10 10:02:59;;;;;;;87.33;48.00;;;;;;;3.58;71.26;97587.52;2246445;79;21315;-86
2021/12/10 10:06:00;;;;;;;85.23;46.27;;;;;;;3.41;71.08;97585.87;2202331;79;21009;-85
2021/12/10 10:09:00;;;;;;;89.57;46.83;;;;;;;3.24;71.22;97576.92;2206263;79;21083;-84
2021/12/10 10:12:01;;;;;;;88.00;46.97;;;;;;;3.19;71.25;97572.55;2229434;79;21040;-85
2021/12/10 10:18:04;;;;;;;85.87;47.90;;;;;;;3.34;71.38;97569.82;2178690;79;21044;-85
2021/12/10 10:21:05;;;;;;;85.23;47.50;;;;;;;3.56;70.62;97565.55;2222903;79;21139;-83
2021/12/10 10:24:08;;;;;;;88.20;47.30;;;;;;;3.63;69.82;97573.86;2232533;79;21041;-85
2021/12/10 10:27:09;;;;;;;88.77;48.63;;;;;;;3.87;70.53;97580.30;2214440;79;21044;-82
2021/12/10 10:30:09;;;;;;;91.17;48.37;;;;;;;3.65;70.25;97588.95;2217099;79;21306;-85
2021/12/10 10:33:10;;;;;;;83.37;45.50;;;;;;;3.42;70.58;97583.31;2225682;79;20997;-83
2021/12/10 10:36:17;;;;;;;98.83;54.67;;;;;;;3.39;70.65;97581.09;2234608;79;21032;-82
2021/12/10 10:39:14;;;;;;;84.97;45.23;;;;;;;3.38;71.11;97569.04;2238487;79;21009;-84
2021/12/10 10:42:15;;;;;;;79.03;42.30;;;;;;;3.43;71.13;97557.10;2250270;79;21028;-84
2021/12/10 10:45:17;;;;;;;82.20;43.87;;;;;;;3.35;70.74;97568.98;2222909;79;21421;-85
2021/12/10 10:48:18;;;;;;;79.93;42.23;;;;;;;3.24;71.07;97575.22;2210412;79;21065;-85
2021/12/10 10:51:18;;;;;;;127.40;74.97;;;;;;;3.19;70.84;97571.25;2230128;79;20954;-81
2021/12/10 10:54:20;;;;;;;88.43;46.63;;;;;;;3.22;70.87;97568.29;2206521;79;21378;-84
2021/12/10 10:57:24;;;;;;;75.50;43.13;;;;;;;3.23;71.58;97558.00;2234267;79;21069;-84
2021/12/10 11:00:28;;;;;;;73.73;41.53;;;;;;;3.32;71.31;97552.16;2237954;79;21066;-83
2021/12/10 11:03:25;;;;;;;78.00;44.17;;;;;;;3.31;71.01;97557.73;2214542;79;21053;-85
2021/12/10 11:06:26;;;;;;;83.17;45.40;;;;;;;3.30;71.00;97561.57;2247191;79;21002;-83
2021/12/10 11:09:27;;;;;;;98.20;55.43;;;;;;;3.31;71.52;97563.31;2203091;79;21052;-84
2021/12/10 11:12:31;;;;;;;95.13;51.37;;;;;;;3.30;71.03;97560.28;2204366;79;20989;-85
2021/12/10 11:15:31;;;;;;;90.53;48.20;;;;;;;3.40;71.33;97562.20;2208237;79;21068;-86
2021/12/10 11:18:32;;;;;;;85.83;46.20;;;;;;;3.55;70.86;97568.98;2218881;79;20974;-84
2021/12/10 11:21:33;;;;;;;86.00;47.50;;;;;;;3.61;70.77;97581.99;2234532;79;20977;-86
2021/12/10 11:24:34;;;;;;;88.03;47.60;;;;;;;3.70;70.60;97577.00;2227468;79;20977;-85
2021/12/10 11:27:35;;;;;;;85.90;46.70;;;;;;;3.80;70.49;97577.62;2245698;79;21378;-84
2021/12/10 11:30:35;;;;;;;90.10;50.87;;;;;;;3.88;70.03;97575.59;2241812;79;20973;-84
2021/12/10 11:33:36;;;;;;;85.87;46.53;;;;;;;3.85;70.19;97576.41;2248887;79;21000;-82
2021/12/10 11:36:39;;;;;;;84.00;44.90;;;;;;;3.79;69.74;97571.14;2251912;78;20985;-84
2021/12/10 11:39:39;;;;;;;80.73;44.07;;;;;;;3.66;70.20;97577.78;2231685;79;21029;-83
2021/12/10 11:42:48;;;;;;;83.40;46.60;;;;;;;3.60;70.44;97593.16;2250185;79;20982;-84
2021/12/10 11:45:51;;;;;;;79.40;44.77;;;;;;;3.56;70.79;97595.23;2230853;79;20982;-79
2021/12/10 11:48:48;;;;;;;97.70;50.67;;;;;;;3.53;70.48;97591.72;2231301;79;21013;-79
2021/12/10 11:51:48;;;;;;;86.83;48.33;;;;;;;3.40;71.05;97603.47;2211596;78;20965;-83
2021/12/10 11:54:49;;;;;;;94.87;51.77;;;;;;;3.42;71.25;97596.22;2221417;78;21444;-83
2021/12/10 11:57:50;;;;;;;101.03;56.87;;;;;;;3.53;71.44;97595.59;2249050;79;21341;-83
2021/12/10 12:00:50;;;;;;;106.00;58.33;;;;;;;3.60;71.00;97588.00;2234106;79;21045;-84
2021/12/10 12:03:51;;;;;;;90.73;48.80;;;;;;;3.59;71.09;97591.41;2239904;79;20996;-83
2021/12/10 12:06:52;;;;;;;92.63;48.10;;;;;;;3.70;70.98;97582.59;2193403;79;20993;-84
2021/12/10 12:09:55;;;;;;;84.60;45.30;;;;;;;3.76;71.01;97586.15;2195592;79;21009;-82
2021/12/10 12:12:56;;;;;;;85.20;46.27;;;;;;;3.93;70.93;97590.75;2232786;79;20961;-86
2021/12/10 12:15:56;;;;;;;80.77;45.00;;;;;;;4.09;70.66;97576.83;2249115;79;21037;-85
2021/12/10 12:18:59;;;;;;;85.40;46.53;;;;;;;4.16;70.28;97566.19;2221665;79;21068;-84
2021/12/10 12:23:30;;;;;;;85.37;47.30;;;;;;;4.29;70.28;97568.12;2208625;79;21037;-84
2021/12/10 12:25:09;;;;;;;85.53;46.57;;;;;;;4.39;69.66;97565.30;2245512;79;21052;-85
2021/12/10 12:28:09;;;;;;;84.77;46.37;;;;;;;4.36;69.34;97560.95;2193010;79;21384;-83
2021/12/10 12:31:13;;;;;;;82.30;45.77;;;;;;;4.36;69.58;97559.66;2244780;79;20993;-84
2021/12/10 12:34:14;;;;;;;108.07;48.33;;;;;;;4.32;69.54;97553.96;2234650;78;22299;-85
2021/12/10 12:37:14;;;;;;;85.20;46.93;;;;;;;4.27;69.64;97550.86;2207583;79;21000;-83
2021/12/10 12:40:15;;;;;;;85.10;46.63;;;;;;;4.20;69.57;97552.48;2224198;79;20993;-85
2021/12/10 12:43:15;;;;;;;84.00;46.23;;;;;;;4.12;69.60;97551.06;2204987;79;20989;-83
2021/12/10 12:46:16;;;;;;;87.27;45.53;;;;;;;3.99;69.83;97549.54;2207662;79;21024;-84
2021/12/10 12:49:21;;;;;;;78.13;42.53;;;;;;;3.91;70.17;97548.12;2189241;79;20989;-84
2021/12/10 12:52:21;;;;;;;96.03;55.07;;;;;;;3.91;70.31;97557.16;2215275;79;20973;-84
2021/12/10 12:55:22;;;;;;;84.63;48.70;;;;;;;3.90;70.44;97559.70;2249611;78;21064;-85
2021/12/10 12:58:23;;;;;;;85.03;45.10;;;;;;;3.82;70.47;97553.99;2235243;79;20985;-84
2021/12/10 13:01:23;;;;;;;90.13;47.53;;;;;;;3.72;70.76;97558.97;2247415;79;21385;-82
2021/12/10 13:04:24;;;;;;;91.33;48.10;;;;;;;3.72;70.71;97555.09;2197948;79;21049;-83
2021/12/10 13:07:25;;;;;;;98.50;50.47;;;;;;;3.76;71.06;97550.02;2211077;79;20989;-81
2021/12/10 13:10:27;;;;;;;94.77;50.87;;;;;;;3.81;70.93;97550.97;2217223;79;21032;-83
2021/12/10 13:13:27;;;;;;;101.30;51.83;;;;;;;3.78;71.26;97551.33;2195313;79;21022;-84
2021/12/10 13:16:28;;;;;;;138.50;77.70;;;;;;;3.76;71.22;97551.30;2201943;79;21090;-81
2021/12/10 13:19:29;;;;;;;109.70;59.83;;;;;;;3.71;71.38;97544.32;2222042;79;20977;-83
2021/12/10 13:22:29;;;;;;;112.87;61.40;;;;;;;3.60;71.07;97547.13;2202168;79;21033;-82
2021/12/10 13:25:30;;;;;;;97.60;53.80;;;;;;;3.48;71.54;97547.77;2212337;79;20970;-82
2021/12/10 13:28:30;;;;;;;95.60;52.20;;;;;;;3.40;71.76;97555.75;2209833;79;20977;-82
2021/12/10 13:31:31;;;;;;;106.20;55.47;;;;;;;3.30;71.79;97555.13;2239726;79;20965;-82
2021/12/10 13:34:31;;;;;;;101.80;53.73;;;;;;;3.26;72.07;97558.48;2217502;79;21024;-84
2021/12/10 13:37:32;;;;;;;104.17;55.37;;;;;;;3.18;72.32;97563.06;2211841;79;20970;-84
2021/12/10 13:40:34;;;;;;;103.87;53.97;;;;;;;3.12;72.50;97555.21;2199628;79;20978;-83
2021/12/10 13:43:35;;;;;;;92.93;52.33;;;;;;;3.07;72.52;97563.27;2221531;79;21053;-84
2021/12/10 13:46:35;;;;;;;103.47;54.60;;;;;;;3.00;72.67;97562.69;2231828;79;21433;-82
2021/12/10 13:49:36;;;;;;;99.87;52.20;;;;;;;2.96;73.01;97562.17;2195410;79;21775;-83
2021/12/10 13:52:40;;;;;;;109.43;57.07;;;;;;;2.92;73.43;97565.53;2245925;79;21011;-82
2021/12/10 13:55:41;;;;;;;110.10;57.43;;;;;;;2.82;73.21;97564.88;2237162;78;21401;-82
2021/12/10 13:58:47;;;;;;;123.10;61.40;;;;;;;2.68;73.44;97566.28;2223263;79;21021;-84
2021/12/10 14:01:44;;;;;;;118.97;61.03;;;;;;;2.58;73.82;97570.75;2250658;79;20982;-82
2021/12/10 14:04:47;;;;;;;126.17;61.77;;;;;;;2.43;73.99;97574.72;2250746;79;21456;-82
2021/12/10 14:07:47;;;;;;;133.07;66.00;;;;;;;2.33;74.22;97571.47;2224459;79;20945;-83
2021/12/10 14:10:51;;;;;;;125.27;62.93;;;;;;;2.17;74.54;97578.38;2207396;79;21522;-83
2021/12/10 14:13:50;;;;;;;129.67;64.80;;;;;;;2.03;74.76;97573.30;2193313;79;21109;-82
2021/12/10 14:16:51;;;;;;;120.83;60.77;;;;;;;1.94;75.17;97578.22;2213849;79;21018;-81
2021/12/10 14:19:51;;;;;;;120.53;60.90;;;;;;;1.85;75.61;97577.16;2251164;79;21045;-82